Time;durP1;ratioP1;P1;durP2;ratioP2;P2;SDS_P1;SDS_P2;PMS_P1;PMS_P2;Temp;Humidity;BMP_temperature;BMP_pressure;BME280_temperature;BME280_humidity;BME280_pressure;Samples;Min_cycle;Max_cycle;Signal;HPM_P1;HPM_P2
2021/12/06 00:02:15;;;;;;;27.85;14.73;;;;;;;2.31;100.00;100547.28;5054255;28;20044;-85
2021/12/06 00:04:45;;;;;;;27.25;12.65;;;;;;;2.33;100.00;100556.78;5059057;28;20718;-84
2021/12/06 00:07:18;;;;;;;30.75;15.00;;;;;;;2.34;100.00;100569.72;5040937;28;20043;-84
2021/12/06 00:09:45;;;;;;;32.60;13.57;;;;;;;2.35;100.00;100566.31;5044694;28;20783;-84
2021/12/06 00:12:14;;;;;;;31.30;14.52;;;;;;;2.37;100.00;100572.38;5063045;28;20045;-84
2021/12/06 00:14:42;;;;;;;33.92;17.02;;;;;;;2.36;100.00;100570.66;5036770;28;20427;-83
2021/12/06 00:17:14;;;;;;;29.38;15.23;;;;;;;2.32;100.00;100563.63;5043318;28;20041;-84
2021/12/06 00:19:44;;;;;;;36.08;15.50;;;;;;;2.25;100.00;100560.03;5040333;28;20044;-84
2021/12/06 00:22:22;;;;;;;30.38;15.07;;;;;;;2.21;100.00;100573.72;5058886;28;20097;-84
2021/12/06 00:24:54;;;;;;;31.55;15.35;;;;;;;2.22;100.00;100572.91;5043022;28;20057;-85
2021/12/06 00:27:23;;;;;;;34.03;16.50;;;;;;;2.22;100.00;100580.66;5054405;28;20040;-85
2021/12/06 00:29:50;;;;;;;37.25;15.95;;;;;;;2.21;100.00;100580.63;5060063;28;20048;-84
2021/12/06 00:32:18;;;;;;;33.85;16.92;;;;;;;2.14;100.00;100595.94;5066957;28;20147;-83
2021/12/06 00:34:48;;;;;;;35.03;16.88;;;;;;;2.09;100.00;100592.38;5045020;28;20056;-84
2021/12/06 00:37:21;;;;;;;31.25;15.88;;;;;;;2.06;100.00;100596.59;5057420;28;20052;-84
2021/12/06 00:39:59;;;;;;;30.55;14.07;;;;;;;2.07;100.00;100596.63;5057691;28;20550;-84
2021/12/06 00:42:33;;;;;;;33.72;17.42;;;;;;;2.01;100.00;100593.03;5056160;28;20064;-84
2021/12/06 00:45:03;;;;;;;30.25;15.93;;;;;;;1.98;100.00;100592.13;5055859;28;20053;-84
2021/12/06 00:47:30;;;;;;;39.42;17.17;;;;;;;1.99;100.00;100593.00;5057711;28;20074;-85
2021/12/06 00:49:56;;;;;;;28.88;14.88;;;;;;;1.97;100.00;100599.84;5054054;28;20044;-84
2021/12/06 00:52:23;;;;;;;30.98;15.48;;;;;;;1.93;100.00;100598.88;5034432;28;20068;-84
2021/12/06 00:54:51;;;;;;;32.92;18.02;;;;;;;1.91;100.00;100605.69;5050395;28;20053;-84
2021/12/06 00:57:20;;;;;;;42.67;17.75;;;;;;;1.90;100.00;100609.09;5035929;28;20053;-84
2021/12/06 00:59:47;;;;;;;39.95;20.23;;;;;;;1.90;100.00;100618.56;5037223;28;20144;-84
2021/12/06 01:02:15;;;;;;;42.10;18.92;;;;;;;1.86;100.00;100625.34;5063366;28;20613;-84
2021/12/06 01:04:49;;;;;;;42.00;18.55;;;;;;;1.85;100.00;100625.31;5033187;28;20055;-83
2021/12/06 01:07:17;;;;;;;43.38;20.60;;;;;;;1.84;100.00;100626.16;5041083;28;20063;-83
2021/12/06 01:09:44;;;;;;;40.10;21.05;;;;;;;1.80;100.00;100636.41;5045400;28;20080;-84
2021/12/06 01:12:12;;;;;;;42.17;19.08;;;;;;;1.83;100.00;100650.25;5035242;28;20032;-84
2021/12/06 01:14:39;;;;;;;37.13;18.88;;;;;;;1.80;100.00;100651.88;5037500;28;20049;-84
2021/12/06 01:17:07;;;;;;;38.70;19.77;;;;;;;1.79;100.00;100655.28;5050547;28;20063;-83
2021/12/06 01:19:36;;;;;;;44.35;19.05;;;;;;;1.75;100.00;100650.03;5039074;28;20057;-84
2021/12/06 01:22:18;;;;;;;39.55;20.50;;;;;;;1.71;100.00;100645.59;5041255;28;20044;-84
2021/12/06 01:24:52;;;;;;;42.00;22.52;;;;;;;1.70;100.00;100656.78;5057319;28;20079;-84
2021/12/06 01:27:37;;;;;;;43.53;21.80;;;;;;;1.70;100.00;100654.19;5039136;28;20074;-84
2021/12/06 01:30:26;;;;;;;41.65;20.80;;;;;;;1.68;100.00;100645.53;5054252;28;20131;-84
2021/12/06 01:41:15;;;;;;;44.20;20.95;;;;;;;1.69;100.00;100660.19;5051459;28;20698;-83
2021/12/06 01:44:03;;;;;;;46.38;21.95;;;;;;;1.68;100.00;100672.19;5056056;28;20458;-84
2021/12/06 01:46:32;;;;;;;47.30;20.65;;;;;;;1.67;100.00;100669.56;5057628;28;20068;-83
2021/12/06 01:49:00;;;;;;;45.42;22.05;;;;;;;1.62;100.00;100667.75;5038790;28;20044;-84
2021/12/06 01:51:28;;;;;;;45.28;22.27;;;;;;;1.63;100.00;100679.81;5054074;28;20098;-84
2021/12/06 01:53:54;;;;;;;54.35;25.02;;;;;;;1.63;100.00;100676.34;5053911;28;20558;-84
2021/12/06 01:56:21;;;;;;;43.05;21.80;;;;;;;1.65;100.00;100685.88;5052283;28;20032;-84
2021/12/06 01:58:50;;;;;;;47.55;24.55;;;;;;;1.68;100.00;100681.66;5054626;28;20052;-84
2021/12/06 02:01:20;;;;;;;51.45;23.67;;;;;;;1.65;100.00;100680.72;5030498;28;20049;-83
2021/12/06 02:03:48;;;;;;;49.85;23.77;;;;;;;1.65;100.00;100687.59;5054503;28;20059;-84
2021/12/06 02:06:15;;;;;;;55.83;25.73;;;;;;;1.66;100.00;100691.94;5051425;28;20049;-84
2021/12/06 02:08:42;;;;;;;41.13;20.42;;;;;;;1.66;100.00;100686.78;5053342;28;20051;-84
2021/12/06 02:11:09;;;;;;;42.05;21.45;;;;;;;1.64;100.00;100688.44;5040026;28;20102;-84
2021/12/06 02:13:43;;;;;;;45.35;25.95;;;;;;;1.61;100.00;100685.78;5051807;28;20165;-84
2021/12/06 02:16:10;;;;;;;43.58;22.05;;;;;;;1.59;100.00;100693.47;5055447;28;20414;-84
2021/12/06 02:18:45;;;;;;;41.08;20.75;;;;;;;1.57;100.00;100696.84;5040294;28;20048;-84
2021/12/06 02:21:18;;;;;;;44.92;22.80;;;;;;;1.58;100.00;100691.72;5053593;28;20126;-84
2021/12/06 02:23:46;;;;;;;47.08;23.58;;;;;;;1.57;100.00;100702.00;5057019;28;20049;-84
2021/12/06 02:26:17;;;;;;;49.88;23.38;;;;;;;1.59;100.00;100695.16;5030937;28;20457;-84
2021/12/06 02:28:44;;;;;;;47.90;22.25;;;;;;;1.58;100.00;100693.44;5040654;28;20058;-83
2021/12/06 02:31:12;;;;;;;38.22;20.40;;;;;;;1.59;100.00;100703.78;5064032;28;20137;-85
2021/12/06 02:33:39;;;;;;;43.80;19.92;;;;;;;1.59;99.71;100705.47;5054822;28;20063;-84
2021/12/06 02:36:07;;;;;;;40.80;22.00;;;;;;;1.58;99.44;100702.03;5071715;28;20045;-84
2021/12/06 02:38:34;;;;;;;40.92;22.00;;;;;;;1.57;99.72;100705.44;5051125;28;20058;-84
2021/12/06 02:41:00;;;;;;;45.80;22.05;;;;;;;1.54;99.24;100705.38;5075013;28;20093;-84
2021/12/06 02:43:27;;;;;;;42.58;21.73;;;;;;;1.51;99.22;100701.81;5059041;28;20098;-84
2021/12/06 02:45:54;;;;;;;46.88;22.63;;;;;;;1.49;98.97;100704.38;5048754;28;20048;-84
2021/12/06 02:48:21;;;;;;;45.72;21.40;;;;;;;1.47;99.74;100716.31;5037490;28;21046;-84
2021/12/06 02:50:54;;;;;;;45.63;22.83;;;;;;;1.46;100.00;100715.47;5036089;28;20568;-84
2021/12/06 02:53:25;;;;;;;41.40;20.63;;;;;;;1.45;99.79;100711.13;5037768;28;20080;-84
2021/12/06 02:55:54;;;;;;;41.42;20.38;;;;;;;1.46;99.50;100712.00;5034387;28;20139;-85
2021/12/06 02:58:46;;;;;;;46.05;23.20;;;;;;;1.49;99.65;100712.97;5029585;28;20407;-85
2021/12/06 03:01:22;;;;;;;38.58;19.13;;;;;;;1.52;99.94;100708.75;5047789;28;20044;-85
2021/12/06 03:03:49;;;;;;;41.30;20.40;;;;;;;1.53;99.66;100711.34;5048354;28;20048;-85
2021/12/06 03:06:16;;;;;;;36.95;18.20;;;;;;;1.56;99.41;100716.59;5067429;28;20510;-85
2021/12/06 03:08:52;;;;;;;47.17;22.75;;;;;;;1.58;99.25;100724.41;5036867;28;20479;-85
2021/12/06 03:11:43;;;;;;;47.13;22.13;;;;;;;1.57;99.47;100720.91;5045017;28;20147;-85
2021/12/06 03:14:17;;;;;;;43.85;22.58;;;;;;;1.56;99.49;100726.91;5035112;28;20190;-85
2021/12/06 03:16:44;;;;;;;44.25;21.88;;;;;;;1.55;99.92;100725.19;5048097;28;20075;-84
2021/12/06 03:19:11;;;;;;;45.00;20.17;;;;;;;1.57;99.45;100725.22;5047849;28;20067;-85
2021/12/06 03:21:38;;;;;;;37.22;19.27;;;;;;;1.56;99.42;100718.31;5054672;28;20529;-85
2021/12/06 03:24:06;;;;;;;36.97;17.95;;;;;;;1.55;99.80;100713.97;5033009;28;20504;-85
2021/12/06 03:26:33;;;;;;;45.63;20.52;;;;;;;1.56;99.73;100716.59;5046997;28;20068;-85
2021/12/06 03:29:01;;;;;;;40.80;20.25;;;;;;;1.58;99.67;100719.25;5028743;28;20045;-85
2021/12/06 03:31:28;;;;;;;42.38;21.00;;;;;;;1.56;99.76;100715.72;5026852;28;20904;-85
2021/12/06 03:33:57;;;;;;;39.17;19.85;;;;;;;1.56;99.40;100713.16;5069097;28;20029;-85
2021/12/06 03:36:28;;;;;;;39.55;18.85;;;;;;;1.53;99.46;100719.09;5043578;28;20049;-85
2021/12/06 03:38:57;;;;;;;41.67;19.70;;;;;;;1.54;99.96;100723.44;5035294;28;20103;-85
2021/12/06 03:41:27;;;;;;;49.05;22.58;;;;;;;1.57;99.93;100722.66;5049994;28;20052;-85
2021/12/06 03:43:55;;;;;;;50.28;22.58;;;;;;;1.56;99.77;100729.50;5054787;28;20179;-85
2021/12/06 03:46:24;;;;;;;40.55;20.05;;;;;;;1.56;100.00;100739.81;5033734;28;20055;-85
2021/12/06 03:48:51;;;;;;;47.38;23.30;;;;;;;1.56;99.76;100744.09;5050652;28;20541;-85
2021/12/06 03:51:18;;;;;;;43.83;20.77;;;;;;;1.54;100.00;100750.91;5052787;28;20041;-85
2021/12/06 03:53:46;;;;;;;47.28;21.50;;;;;;;1.50;100.00;100749.97;5036657;28;20041;-85
2021/12/06 03:56:13;;;;;;;45.30;21.45;;;;;;;1.48;100.00;100756.78;5032012;28;20156;-85
2021/12/06 03:58:40;;;;;;;45.10;21.48;;;;;;;1.49;100.00;100761.97;5059034;28;20064;-85
2021/12/06 04:01:08;;;;;;;37.50;18.50;;;;;;;1.50;100.00;100765.44;5048532;28;20396;-85
2021/12/06 04:03:38;;;;;;;40.35;19.38;;;;;;;1.51;100.00;100763.72;5052408;28;20641;-85
2021/12/06 04:06:08;;;;;;;43.83;20.98;;;;;;;1.52;100.00;100766.34;5046521;28;20060;-85
2021/12/06 04:08:35;;;;;;;43.78;20.45;;;;;;;1.50;100.00;100762.88;5037560;28;20139;-85
2021/12/06 04:11:01;;;;;;;40.20;19.42;;;;;;;1.48;100.00;100765.38;5037636;28;20384;-85
2021/12/06 04:13:28;;;;;;;41.17;20.77;;;;;;;1.49;100.00;100767.13;5032896;28;20044;-85
2021/12/06 04:15:55;;;;;;;34.13;19.58;;;;;;;1.52;100.00;100757.75;5051473;28;21555;-85
2021/12/06 04:18:21;;;;;;;39.13;18.95;;;;;;;1.57;100.00;100767.38;5060950;28;20084;-85
2021/12/06 04:20:48;;;;;;;37.75;19.08;;;;;;;1.61;100.00;100770.91;5041705;28;20052;-85
2021/12/06 04:23:16;;;;;;;35.10;16.90;;;;;;;1.62;100.00;100770.97;5040358;28;20056;-85
2021/12/06 04:25:44;;;;;;;31.75;17.42;;;;;;;1.63;99.97;100767.56;5052954;28;20048;-84
2021/12/06 04:28:14;;;;;;;32.40;17.73;;;;;;;1.64;99.83;100771.00;5042570;28;20063;-85
2021/12/06 04:30:41;;;;;;;40.97;17.35;;;;;;;1.61;98.96;100774.38;5056905;28;20071;-85
2021/12/06 04:33:08;;;;;;;35.15;17.02;;;;;;;1.61;99.10;100776.94;5033904;28;20075;-85
2021/12/06 04:35:37;;;;;;;36.75;16.83;;;;;;;1.59;98.90;100776.03;5034950;28;20052;-85
2021/12/06 04:38:05;;;;;;;35.58;17.83;;;;;;;1.56;98.99;100777.66;5034752;28;20040;-85
2021/12/06 04:40:32;;;;;;;32.13;17.02;;;;;;;1.55;99.13;100776.78;5033698;28;20045;-86
2021/12/06 04:42:59;;;;;;;31.98;17.00;;;;;;;1.58;99.07;100784.59;5053129;28;21522;-85
2021/12/06 04:45:26;;;;;;;32.22;16.08;;;;;;;1.59;99.21;100778.63;5044992;28;20137;-85
2021/12/06 04:47:53;;;;;;;39.00;18.23;;;;;;;1.59;98.66;100776.03;5068019;28;20388;-85
2021/12/06 04:50:25;;;;;;;37.80;17.85;;;;;;;1.59;99.22;100775.16;5033246;28;20508;-84
2021/12/06 04:52:54;;;;;;;33.72;15.88;;;;;;;1.59;98.90;100778.63;5050045;28;20040;-85
2021/12/06 04:55:48;;;;;;;36.92;16.33;;;;;;;1.58;99.05;100781.16;5050687;28;20048;-85
2021/12/06 04:58:21;;;;;;;31.30;14.93;;;;;;;1.56;99.03;100790.56;5033360;28;20056;-83
2021/12/06 05:01:01;;;;;;;34.25;15.50;;;;;;;1.55;98.83;100787.09;5038374;28;20078;-84
2021/12/06 05:03:30;;;;;;;31.10;14.77;;;;;;;1.55;99.13;100799.13;5060998;28;20049;-85
2021/12/06 05:06:07;;;;;;;34.55;15.20;;;;;;;1.54;98.59;100798.25;5033884;28;20497;-85
2021/12/06 05:08:40;;;;;;;29.92;13.90;;;;;;;1.51;98.53;100798.13;5051505;28;20127;-85
2021/12/06 05:11:07;;;;;;;34.13;16.50;;;;;;;1.51;98.60;100799.84;5045742;28;20064;-85
2021/12/06 05:13:37;;;;;;;36.60;17.13;;;;;;;1.47;98.88;100804.94;5047077;28;20056;-85
2021/12/06 05:16:04;;;;;;;33.50;16.23;;;;;;;1.44;98.90;100809.97;5045766;28;20544;-85
2021/12/06 05:18:31;;;;;;;36.03;16.02;;;;;;;1.43;98.89;100815.09;5047402;28;20063;-86
2021/12/06 05:20:57;;;;;;;33.08;15.68;;;;;;;1.42;99.20;100821.06;5048172;28;22144;-85
2021/12/06 05:23:24;;;;;;;31.45;15.93;;;;;;;1.42;99.82;100816.81;5048519;28;20051;-86
2021/12/06 05:25:51;;;;;;;25.88;15.45;;;;;;;1.43;99.96;100828.00;5057821;28;20098;-86
2021/12/06 05:28:22;;;;;;;39.65;16.08;;;;;;;1.44;99.59;100834.91;5064198;28;20565;-86
2021/12/06 05:30:54;;;;;;;34.60;15.18;;;;;;;1.45;99.09;100829.78;5039518;28;20056;-86
2021/12/06 05:33:29;;;;;;;26.15;13.80;;;;;;;1.47;99.12;100840.16;5038996;28;20499;-85
2021/12/06 05:35:59;;;;;;;29.80;17.25;;;;;;;1.46;99.34;100841.88;5048559;28;20515;-85
2021/12/06 05:38:30;;;;;;;32.33;16.20;;;;;;;1.48;99.06;100845.34;5039183;28;20562;-85
2021/12/06 05:41:01;;;;;;;35.45;16.52;;;;;;;1.49;99.33;100849.69;5036088;28;20049;-86
2021/12/06 05:43:28;;;;;;;38.38;17.45;;;;;;;1.51;98.70;100851.44;5050628;28;20064;-85
2021/12/06 05:45:55;;;;;;;29.70;16.27;;;;;;;1.48;98.99;100852.22;5048584;28;20052;-85
2021/12/06 05:48:22;;;;;;;32.50;16.10;;;;;;;1.47;98.36;100850.47;5065391;28;22969;-85
2021/12/06 05:50:49;;;;;;;36.95;16.45;;;;;;;1.48;98.64;100850.50;5053463;28;20068;-86
2021/12/06 05:53:17;;;;;;;34.53;17.15;;;;;;;1.50;98.95;100850.59;5033213;28;20091;-86
2021/12/06 05:55:44;;;;;;;40.55;17.75;;;;;;;1.53;98.92;100858.41;5048542;28;20039;-85
2021/12/06 05:58:13;;;;;;;35.08;16.52;;;;;;;1.51;99.07;100862.63;5035994;28;20086;-85
2021/12/06 06:00:42;;;;;;;42.80;20.13;;;;;;;1.50;99.55;100860.91;5047355;28;20068;-85
2021/12/06 06:03:11;;;;;;;37.35;17.50;;;;;;;1.51;99.08;100861.78;5054831;28;20052;-85
2021/12/06 06:05:39;;;;;;;39.67;18.27;;;;;;;1.51;99.44;100862.63;5048060;28;20056;-86
2021/12/06 06:08:08;;;;;;;42.00;19.15;;;;;;;1.51;99.63;100864.34;5036213;28;20123;-85
2021/12/06 06:10:38;;;;;;;40.47;19.67;;;;;;;1.55;99.52;100871.34;5049989;28;20056;-85
2021/12/06 06:13:07;;;;;;;42.97;19.23;;;;;;;1.55;99.39;100867.09;5030481;28;20040;-85
2021/12/06 06:15:37;;;;;;;40.72;18.02;;;;;;;1.55;99.47;100873.94;5053765;28;20044;-85
2021/12/06 06:18:05;;;;;;;42.88;18.83;;;;;;;1.51;100.00;100879.84;5074378;28;20052;-86
2021/12/06 06:20:38;;;;;;;39.33;17.42;;;;;;;1.50;99.75;100881.56;5050938;28;20363;-85
2021/12/06 06:23:05;;;;;;;50.58;24.52;;;;;;;1.50;100.00;100876.38;5072346;28;20834;-85
2021/12/06 06:25:32;;;;;;;49.08;20.05;;;;;;;1.52;100.00;100884.16;5046544;28;20055;-85
2021/12/06 06:28:03;;;;;;;54.88;21.92;;;;;;;1.49;100.00;100883.22;5059511;28;20113;-85
2021/12/06 06:30:33;;;;;;;46.85;19.83;;;;;;;1.47;100.00;100884.00;5051914;28;20059;-85
2021/12/06 06:33:01;;;;;;;44.92;19.67;;;;;;;1.44;100.00;100894.25;5057339;28;20043;-85
2021/12/06 06:35:38;;;;;;;50.35;21.55;;;;;;;1.45;100.00;100899.44;5068679;28;20082;-85
2021/12/06 06:38:12;;;;;;;50.60;20.52;;;;;;;1.48;100.00;100903.84;5080323;28;20032;-84
2021/12/06 06:40:46;;;;;;;42.78;19.00;;;;;;;1.47;100.00;100900.38;5073816;28;20062;-85
2021/12/06 06:43:13;;;;;;;47.65;21.00;;;;;;;1.48;100.00;100909.00;5068745;28;20059;-86
2021/12/06 06:45:41;;;;;;;49.85;22.13;;;;;;;1.48;100.00;100914.16;5088961;28;20058;-85
2021/12/06 06:48:29;;;;;;;44.38;21.20;;;;;;;1.49;100.00;100911.63;5064095;28;20028;-85
2021/12/06 06:50:59;;;;;;;35.47;17.67;;;;;;;1.49;99.86;100909.03;5041304;28;20156;-86
2021/12/06 06:53:27;;;;;;;44.53;21.58;;;;;;;1.49;100.00;100908.16;5041739;28;20529;-85
2021/12/06 06:56:07;;;;;;;38.53;19.80;;;;;;;1.52;99.66;100909.97;5045734;28;20059;-85
2021/12/06 06:58:40;;;;;;;36.05;19.10;;;;;;;1.49;99.61;100910.75;5060503;28;20044;-85
2021/12/06 07:01:16;;;;;;;45.92;20.27;;;;;;;1.47;99.73;100914.97;5067140;28;20056;-85
2021/12/06 07:03:45;;;;;;;37.88;19.85;;;;;;;1.46;99.35;100923.53;5042290;28;20110;-86
2021/12/06 07:06:12;;;;;;;45.15;21.15;;;;;;;1.45;99.38;100926.97;5031621;28;20121;-86
2021/12/06 07:08:39;;;;;;;44.03;21.13;;;;;;;1.40;99.70;100937.13;5044752;28;20072;-86
2021/12/06 07:11:06;;;;;;;33.65;18.13;;;;;;;1.34;99.39;100934.31;5051973;28;21070;-87
2021/12/06 07:13:37;;;;;;;42.88;18.00;;;;;;;1.25;99.82;100932.34;5038754;28;20045;-85
2021/12/06 07:16:06;;;;;;;36.42;18.65;;;;;;;1.22;100.00;100942.53;5050095;28;20112;-85
2021/12/06 07:18:37;;;;;;;37.90;17.98;;;;;;;1.18;100.00;100943.25;5052335;28;20151;-85
2021/12/06 07:21:05;;;;;;;42.70;19.23;;;;;;;1.16;100.00;100947.47;5039229;28;20049;-85
2021/12/06 07:23:33;;;;;;;36.78;19.40;;;;;;;1.13;100.00;100940.53;5039622;28;20037;-85
2021/12/06 07:25:59;;;;;;;36.35;17.92;;;;;;;1.14;100.00;100939.69;5053944;28;20044;-86
2021/12/06 07:28:26;;;;;;;35.80;19.52;;;;;;;1.14;100.00;100936.25;5049423;28;20036;-85
2021/12/06 07:30:53;;;;;;;34.95;18.77;;;;;;;1.13;100.00;100947.38;5050666;28;20041;-85
2021/12/06 07:33:19;;;;;;;37.60;21.63;;;;;;;1.09;100.00;100941.22;5053144;28;20044;-85
2021/12/06 07:35:46;;;;;;;39.00;20.63;;;;;;;1.11;100.00;100947.34;5046372;28;20139;-85
2021/12/06 07:38:13;;;;;;;36.22;19.05;;;;;;;1.12;100.00;100946.50;5054450;28;20048;-85
2021/12/06 07:40:39;;;;;;;33.90;19.23;;;;;;;1.11;100.00;100941.31;5032265;28;20602;-85
2021/12/06 07:43:06;;;;;;;33.67;19.25;;;;;;;1.12;100.00;100943.03;5042394;28;20131;-85
2021/12/06 07:45:33;;;;;;;34.58;17.58;;;;;;;1.11;100.00;100939.59;5035509;28;20049;-86
2021/12/06 07:48:00;;;;;;;29.70;17.00;;;;;;;1.12;100.00;100931.03;5063903;28;20507;-85
2021/12/06 07:50:27;;;;;;;35.10;18.05;;;;;;;1.13;100.00;100934.50;5052567;28;20055;-86
2021/12/06 07:52:57;;;;;;;31.90;18.13;;;;;;;1.12;100.00;100937.88;5034387;28;20041;-85
2021/12/06 07:55:26;;;;;;;30.10;17.60;;;;;;;1.14;99.77;100942.28;5038560;28;20059;-86
2021/12/06 07:57:56;;;;;;;30.05;18.02;;;;;;;1.17;100.00;100943.22;5043399;28;20135;-86
2021/12/06 08:00:25;;;;;;;36.83;20.40;;;;;;;1.19;100.00;100936.38;5031106;28;20059;-85
2021/12/06 08:02:52;;;;;;;32.67;18.67;;;;;;;1.16;99.97;100942.31;5034335;28;20045;-85
2021/12/06 08:05:33;;;;;;;41.65;19.77;;;;;;;1.15;99.16;100931.13;5030772;28;20513;-86
2021/12/06 08:08:18;;;;;;;43.90;23.08;;;;;;;1.13;99.78;100937.97;5037280;28;20063;-85
2021/12/06 08:10:50;;;;;;;38.58;19.15;;;;;;;1.16;99.50;100939.75;5051685;28;20122;-85
2021/12/06 08:13:21;;;;;;;38.85;19.30;;;;;;;1.17;99.42;100938.06;5034644;28;20076;-85
2021/12/06 08:15:50;;;;;;;41.08;20.73;;;;;;;1.11;98.66;100941.31;5037794;28;20560;-85
2021/12/06 08:18:17;;;;;;;36.90;19.95;;;;;;;1.12;99.49;100946.50;5053540;28;20142;-85
2021/12/06 08:20:44;;;;;;;37.80;19.33;;;;;;;1.17;100.00;100953.53;5043978;28;20044;-85
2021/12/06 08:23:12;;;;;;;41.40;22.15;;;;;;;1.14;98.84;100950.00;5045169;28;20051;-85
2021/12/06 08:25:40;;;;;;;41.47;23.23;;;;;;;1.14;99.21;100956.88;5044678;28;20463;-85
2021/12/06 08:28:07;;;;;;;46.13;23.45;;;;;;;1.06;98.63;100955.75;5059984;28;20060;-86
2021/12/06 08:30:35;;;;;;;42.53;20.90;;;;;;;1.08;99.58;100961.81;5042942;28;20052;-86
2021/12/06 08:33:04;;;;;;;43.33;23.60;;;;;;;1.11;99.69;100955.06;5035403;28;20057;-86
2021/12/06 08:35:32;;;;;;;40.25;20.85;;;;;;;1.15;99.17;100951.75;5038823;28;20081;-86
2021/12/06 08:38:01;;;;;;;40.63;22.20;;;;;;;1.17;98.94;100953.53;5051077;28;20418;-85
2021/12/06 08:40:30;;;;;;;37.17;19.63;;;;;;;1.12;98.50;100954.25;5041917;28;20875;-86
2021/12/06 08:42:57;;;;;;;41.65;21.50;;;;;;;1.15;98.82;100949.19;5055608;28;20490;-87
2021/12/06 08:45:26;;;;;;;44.55;21.55;;;;;;;1.20;98.91;100944.19;5031726;28;21950;-87
2021/12/06 08:47:52;;;;;;;39.22;19.67;;;;;;;1.22;98.70;100942.53;5055361;28;23445;-86
2021/12/06 08:50:22;;;;;;;39.78;22.88;;;;;;;1.26;98.77;100944.38;5053451;28;20105;-86
2021/12/06 08:52:50;;;;;;;46.13;22.23;;;;;;;1.30;98.64;100940.22;5038096;28;20063;-86
2021/12/06 08:55:18;;;;;;;48.15;22.42;;;;;;;1.29;98.19;100938.44;5036867;28;20155;-86
2021/12/06 08:57:46;;;;;;;40.45;22.02;;;;;;;1.26;98.23;100933.19;5031478;28;20179;-85
2021/12/06 09:00:25;;;;;;;42.67;20.27;;;;;;;1.26;98.15;100944.38;5034375;28;20162;-85
2021/12/06 09:02:52;;;;;;;47.55;22.92;;;;;;;1.20;98.36;100939.03;5049098;28;20197;-85
2021/12/06 09:05:21;;;;;;;43.05;21.45;;;;;;;1.23;98.52;100935.69;5025864;28;20057;-85
2021/12/06 09:07:48;;;;;;;39.85;22.33;;;;;;;1.26;98.31;100933.19;5050071;28;20043;-86
2021/12/06 09:10:15;;;;;;;41.97;22.15;;;;;;;1.29;98.52;100928.13;5044512;28;20068;-85
2021/12/06 09:12:45;;;;;;;40.45;19.58;;;;;;;1.31;98.18;100926.50;5050719;28;20056;-85
2021/12/06 09:15:16;;;;;;;36.90;19.98;;;;;;;1.37;98.28;100938.72;5049373;28;20126;-85
2021/12/06 09:17:44;;;;;;;48.05;22.25;;;;;;;1.33;97.33;100937.75;5031549;28;20506;-86
2021/12/06 09:20:13;;;;;;;43.70;21.15;;;;;;;1.33;97.50;100935.19;5037275;28;20491;-86
2021/12/06 09:22:41;;;;;;;39.15;20.33;;;;;;;1.36;98.00;100936.97;5044423;28;20482;-85
2021/12/06 09:25:10;;;;;;;44.03;20.55;;;;;;;1.34;97.10;100938.63;5048949;28;20060;-85
2021/12/06 09:27:38;;;;;;;39.80;22.70;;;;;;;1.28;97.39;100935.00;5046857;28;20040;-86
2021/12/06 09:30:07;;;;;;;40.83;19.98;;;;;;;1.26;97.81;100941.81;5032985;28;20056;-85
2021/12/06 09:32:33;;;;;;;40.72;20.02;;;;;;;1.28;97.68;100942.75;5052312;28;20064;-85
2021/12/06 09:35:00;;;;;;;37.42;20.90;;;;;;;1.27;97.70;100948.72;5046518;28;20051;-86
2021/12/06 09:37:27;;;;;;;40.05;20.60;;;;;;;1.32;97.77;100942.03;5035928;28;20056;-85
2021/12/06 09:39:56;;;;;;;37.50;20.08;;;;;;;1.42;97.68;100944.91;5036497;28;20044;-86
2021/12/06 09:42:32;;;;;;;42.20;19.52;;;;;;;1.49;97.33;100944.28;5030953;28;20048;-86
2021/12/06 09:44:59;;;;;;;38.90;20.88;;;;;;;1.49;97.09;100945.16;5033608;28;20503;-85
2021/12/06 09:47:29;;;;;;;45.65;20.67;;;;;;;1.51;96.92;100939.19;5059443;28;20288;-85
2021/12/06 09:49:56;;;;;;;41.08;20.50;;;;;;;1.43;96.43;100938.91;5084093;28;20048;-86
2021/12/06 09:52:23;;;;;;;36.20;19.60;;;;;;;1.36;97.16;100940.44;5068945;28;20051;-85
2021/12/06 09:54:49;;;;;;;41.28;19.73;;;;;;;1.36;97.52;100942.13;5044114;28;20040;-85
2021/12/06 09:57:16;;;;;;;46.53;21.30;;;;;;;1.37;97.11;100933.56;5069386;28;20060;-86
2021/12/06 09:59:44;;;;;;;39.72;21.38;;;;;;;1.35;97.41;100941.25;5047043;28;20062;-86
2021/12/06 10:02:16;;;;;;;40.30;23.13;;;;;;;1.36;97.43;100943.00;5066227;28;20044;-86
2021/12/06 10:04:51;;;;;;;46.33;22.42;;;;;;;1.33;97.24;100942.91;5070435;28;20115;-85
2021/12/06 10:07:19;;;;;;;51.50;23.02;;;;;;;1.40;97.80;100941.41;5055655;28;20036;-85
2021/12/06 10:09:46;;;;;;;47.08;20.95;;;;;;;1.43;97.08;100946.66;5069733;28;20391;-85
2021/12/06 10:12:16;;;;;;;42.17;20.50;;;;;;;1.44;97.36;100943.25;5052647;28;20102;-85
2021/12/06 10:14:46;;;;;;;47.35;21.77;;;;;;;1.51;97.26;100947.78;5050198;28;20055;-85
2021/12/06 10:17:16;;;;;;;44.63;21.85;;;;;;;1.59;97.09;100946.34;5037914;28;20052;-85
2021/12/06 10:19:45;;;;;;;42.25;23.38;;;;;;;1.60;96.36;100942.06;5062504;28;20090;-85
2021/12/06 10:22:14;;;;;;;48.67;22.75;;;;;;;1.62;95.96;100940.41;5048565;28;20044;-85
2021/12/06 10:24:41;;;;;;;45.70;20.98;;;;;;;1.60;96.32;100945.53;5033392;28;20918;-86
2021/12/06 10:27:14;;;;;;;39.15;21.63;;;;;;;1.57;96.16;100939.38;5050517;28;20125;-85
2021/12/06 10:29:53;;;;;;;48.70;23.35;;;;;;;1.61;96.48;100936.94;5033707;28;20557;-85
2021/12/06 10:32:33;;;;;;;48.38;21.80;;;;;;;1.65;96.55;100937.91;5041272;28;20970;-85
2021/12/06 10:35:06;;;;;;;47.13;21.05;;;;;;;1.65;95.81;100936.19;5047185;28;20125;-85
2021/12/06 10:37:45;;;;;;;43.00;21.10;;;;;;;1.68;96.07;100931.97;5043075;28;20384;-85
2021/12/06 10:40:18;;;;;;;44.22;20.92;;;;;;;1.68;95.29;100931.97;5042400;28;20133;-85
2021/12/06 10:42:48;;;;;;;49.35;21.55;;;;;;;1.68;95.26;100930.25;5052044;28;20215;-85
2021/12/06 10:45:23;;;;;;;41.08;20.58;;;;;;;1.66;95.92;100924.19;5044263;28;20094;-85
2021/12/06 10:48:16;;;;;;;44.17;21.75;;;;;;;1.63;95.54;100921.50;5066766;28;20101;-85
2021/12/06 10:51:13;;;;;;;44.50;21.58;;;;;;;1.62;95.67;100919.75;5066318;28;20060;-85
2021/12/06 10:54:05;;;;;;;43.97;21.02;;;;;;;1.63;95.51;100918.91;5065947;28;20119;-85
2021/12/06 10:56:41;;;;;;;38.85;19.60;;;;;;;1.62;95.52;100914.59;5048098;28;20082;-85
2021/12/06 10:59:25;;;;;;;41.85;20.10;;;;;;;1.61;95.26;100912.84;5069599;28;20052;-85
2021/12/06 11:02:06;;;;;;;48.63;20.73;;;;;;;1.59;95.30;100906.75;5057682;28;20134;-85
2021/12/06 11:04:33;;;;;;;41.40;21.42;;;;;;;1.57;95.79;100896.38;5067343;28;20096;-85
2021/12/06 11:07:06;;;;;;;46.53;21.50;;;;;;;1.57;95.53;100893.81;5069204;28;20557;-85
2021/12/06 11:09:37;;;;;;;35.58;20.08;;;;;;;1.60;95.41;100887.84;5053886;28;20051;-86
2021/12/06 11:12:07;;;;;;;37.65;21.48;;;;;;;1.65;95.42;100882.00;5066866;28;20048;-85
2021/12/06 11:14:38;;;;;;;43.53;21.27;;;;;;;1.65;94.82;100876.84;5052680;28;20048;-84
2021/12/06 11:17:19;;;;;;;42.55;20.52;;;;;;;1.57;95.10;100868.00;5068062;28;20127;-85
2021/12/06 11:19:49;;;;;;;47.38;21.83;;;;;;;1.57;95.16;100870.56;5058807;28;20120;-85
2021/12/06 11:22:23;;;;;;;42.20;21.02;;;;;;;1.55;95.12;100874.84;5061956;28;20422;-85
2021/12/06 11:24:51;;;;;;;46.85;21.80;;;;;;;1.55;95.48;100884.25;5052604;28;20048;-85
2021/12/06 11:27:27;;;;;;;44.75;22.02;;;;;;;1.51;95.82;100875.53;5061051;28;20127;-85
2021/12/06 11:30:04;;;;;;;49.80;24.15;;;;;;;1.48;96.12;100875.44;5052020;28;20358;-85
2021/12/06 11:32:34;;;;;;;50.50;23.00;;;;;;;1.47;96.32;100871.13;5070306;28;20129;-84
2021/12/06 11:35:11;;;;;;;52.13;22.48;;;;;;;1.51;95.85;100870.38;5048455;28;20043;-85
2021/12/06 11:37:43;;;;;;;48.97;24.63;;;;;;;1.52;96.13;100873.84;5069067;28;20052;-85